sensor_id;sensor_type;location;lat;lon;timestamp;P1;durP1;ratioP1;P2;durP2;ratioP2
24713;SDS011;12820;51.580;5.010;2023-02-12T00:04:37;21.85;;;13.00;;
24713;SDS011;12820;51.580;5.010;2023-02-12T00:09:40;21.70;;;12.43;;
24713;SDS011;12820;51.580;5.010;2023-02-12T00:14:42;21.60;;;11.82;;
24713;SDS011;12820;51.580;5.010;2023-02-12T00:19:45;21.52;;;11.93;;
24713;SDS011;12820;51.580;5.010;2023-02-12T00:24:48;20.67;;;11.57;;
24713;SDS011;12820;51.580;5.010;2023-02-12T00:29:51;22.50;;;11.70;;
24713;SDS011;12820;51.580;5.010;2023-02-12T00:34:53;20.83;;;11.65;;
24713;SDS011;12820;51.580;5.010;2023-02-12T00:39:55;18.00;;;11.73;;
24713;SDS011;12820;51.580;5.010;2023-02-12T00:44:57;19.92;;;11.75;;
24713;SDS011;12820;51.580;5.010;2023-02-12T00:50:00;22.52;;;12.07;;
24713;SDS011;12820;51.580;5.010;2023-02-12T00:55:02;19.17;;;11.98;;
24713;SDS011;12820;51.580;5.010;2023-02-12T01:00:05;20.80;;;11.63;;
24713;SDS011;12820;51.580;5.010;2023-02-12T01:05:09;20.88;;;11.43;;
24713;SDS011;12820;51.580;5.010;2023-02-12T01:10:11;19.33;;;11.45;;
24713;SDS011;12820;51.580;5.010;2023-02-12T01:15:13;18.92;;;10.88;;
24713;SDS011;12820;51.580;5.010;2023-02-12T01:20:17;19.42;;;11.02;;
24713;SDS011;12820;51.580;5.010;2023-02-12T01:25:20;19.98;;;11.20;;
24713;SDS011;12820;51.580;5.010;2023-02-12T01:30:22;20.48;;;11.57;;
24713;SDS011;12820;51.580;5.010;2023-02-12T01:35:25;18.20;;;11.27;;
24713;SDS011;12820;51.580;5.010;2023-02-12T01:40:28;26.90;;;11.52;;
24713;SDS011;12820;51.580;5.010;2023-02-12T01:45:37;19.98;;;11.38;;
24713;SDS011;12820;51.580;5.010;2023-02-12T01:50:48;19.52;;;11.65;;
24713;SDS011;12820;51.580;5.010;2023-02-12T01:55:53;20.98;;;12.63;;
24713;SDS011;12820;51.580;5.010;2023-02-12T02:01:00;23.80;;;11.90;;
24713;SDS011;12820;51.580;5.010;2023-02-12T02:06:07;22.77;;;12.02;;
24713;SDS011;12820;51.580;5.010;2023-02-12T02:11:14;21.05;;;11.95;;
24713;SDS011;12820;51.580;5.010;2023-02-12T02:16:35;20.58;;;11.98;;
24713;SDS011;12820;51.580;5.010;2023-02-12T02:27:06;22.90;;;12.05;;
24713;SDS011;12820;51.580;5.010;2023-02-12T02:32:31;22.60;;;11.55;;
24713;SDS011;12820;51.580;5.010;2023-02-12T02:37:44;21.13;;;12.48;;
24713;SDS011;12820;51.580;5.010;2023-02-12T02:43:03;21.70;;;12.00;;
24713;SDS011;12820;51.580;5.010;2023-02-12T02:53:21;21.42;;;12.13;;
24713;SDS011;12820;51.580;5.010;2023-02-12T02:58:31;25.08;;;12.70;;
24713;SDS011;12820;51.580;5.010;2023-02-12T03:03:44;19.92;;;12.52;;
24713;SDS011;12820;51.580;5.010;2023-02-12T03:09:05;19.92;;;11.80;;
24713;SDS011;12820;51.580;5.010;2023-02-12T03:19:24;24.90;;;11.73;;
24713;SDS011;12820;51.580;5.010;2023-02-12T03:29:41;19.35;;;13.23;;
24713;SDS011;12820;51.580;5.010;2023-02-12T03:55:50;20.95;;;12.85;;
24713;SDS011;12820;51.580;5.010;2023-02-12T04:00:57;21.55;;;13.30;;
24713;SDS011;12820;51.580;5.010;2023-02-12T04:05:59;23.80;;;13.35;;
24713;SDS011;12820;51.580;5.010;2023-02-12T04:16:21;23.80;;;13.43;;
24713;SDS011;12820;51.580;5.010;2023-02-12T04:26:49;21.38;;;12.35;;
24713;SDS011;12820;51.580;5.010;2023-02-12T04:37:17;21.60;;;12.77;;
24713;SDS011;12820;51.580;5.010;2023-02-12T04:42:22;22.98;;;12.65;;
24713;SDS011;12820;51.580;5.010;2023-02-12T04:47:24;22.38;;;13.35;;
24713;SDS011;12820;51.580;5.010;2023-02-12T04:52:26;21.45;;;12.43;;
24713;SDS011;12820;51.580;5.010;2023-02-12T04:57:28;21.63;;;12.48;;
24713;SDS011;12820;51.580;5.010;2023-02-12T05:02:32;20.77;;;12.45;;
24713;SDS011;12820;51.580;5.010;2023-02-12T05:07:34;22.98;;;13.10;;
24713;SDS011;12820;51.580;5.010;2023-02-12T05:12:36;25.13;;;13.35;;
24713;SDS011;12820;51.580;5.010;2023-02-12T05:17:38;21.95;;;12.82;;
24713;SDS011;12820;51.580;5.010;2023-02-12T05:22:40;23.60;;;14.27;;
24713;SDS011;12820;51.580;5.010;2023-02-12T05:27:43;24.60;;;13.52;;
24713;SDS011;12820;51.580;5.010;2023-02-12T05:32:45;24.23;;;14.23;;
24713;SDS011;12820;51.580;5.010;2023-02-12T05:37:47;26.60;;;14.90;;
24713;SDS011;12820;51.580;5.010;2023-02-12T05:42:49;23.55;;;13.07;;
24713;SDS011;12820;51.580;5.010;2023-02-12T05:47:51;23.05;;;13.35;;
24713;SDS011;12820;51.580;5.010;2023-02-12T05:52:53;25.33;;;13.35;;
24713;SDS011;12820;51.580;5.010;2023-02-12T05:57:55;23.42;;;14.43;;
24713;SDS011;12820;51.580;5.010;2023-02-12T06:02:57;25.45;;;12.30;;
24713;SDS011;12820;51.580;5.010;2023-02-12T06:07:59;23.05;;;13.55;;
24713;SDS011;12820;51.580;5.010;2023-02-12T06:13:01;24.98;;;13.55;;
24713;SDS011;12820;51.580;5.010;2023-02-12T06:18:04;25.58;;;13.75;;
24713;SDS011;12820;51.580;5.010;2023-02-12T06:23:06;24.98;;;13.57;;
24713;SDS011;12820;51.580;5.010;2023-02-12T06:28:08;26.30;;;14.48;;
24713;SDS011;12820;51.580;5.010;2023-02-12T06:33:10;25.00;;;14.55;;
24713;SDS011;12820;51.580;5.010;2023-02-12T06:38:12;26.75;;;13.32;;
24713;SDS011;12820;51.580;5.010;2023-02-12T06:43:15;23.88;;;13.38;;
24713;SDS011;12820;51.580;5.010;2023-02-12T06:48:17;25.60;;;13.75;;
24713;SDS011;12820;51.580;5.010;2023-02-12T06:53:19;24.90;;;13.98;;
24713;SDS011;12820;51.580;5.010;2023-02-12T06:58:21;23.63;;;14.40;;
24713;SDS011;12820;51.580;5.010;2023-02-12T07:03:23;23.13;;;13.90;;
24713;SDS011;12820;51.580;5.010;2023-02-12T07:08:25;23.58;;;13.75;;
24713;SDS011;12820;51.580;5.010;2023-02-12T07:13:27;25.67;;;14.50;;
24713;SDS011;12820;51.580;5.010;2023-02-12T07:18:29;25.23;;;14.75;;
24713;SDS011;12820;51.580;5.010;2023-02-12T07:23:32;27.23;;;14.38;;
24713;SDS011;12820;51.580;5.010;2023-02-12T07:28:35;23.30;;;13.00;;
24713;SDS011;12820;51.580;5.010;2023-02-12T07:33:37;23.40;;;14.23;;
24713;SDS011;12820;51.580;5.010;2023-02-12T07:38:40;25.60;;;14.70;;
24713;SDS011;12820;51.580;5.010;2023-02-12T07:43:43;27.13;;;14.20;;
24713;SDS011;12820;51.580;5.010;2023-02-12T07:48:47;23.52;;;13.77;;
24713;SDS011;12820;51.580;5.010;2023-02-12T07:53:51;27.20;;;13.52;;
24713;SDS011;12820;51.580;5.010;2023-02-12T07:58:54;23.92;;;13.70;;
24713;SDS011;12820;51.580;5.010;2023-02-12T08:03:57;22.60;;;13.25;;
24713;SDS011;12820;51.580;5.010;2023-02-12T08:09:02;24.70;;;14.30;;
24713;SDS011;12820;51.580;5.010;2023-02-12T08:14:08;25.13;;;14.15;;
24713;SDS011;12820;51.580;5.010;2023-02-12T08:19:12;31.48;;;15.38;;
24713;SDS011;12820;51.580;5.010;2023-02-12T08:24:22;24.90;;;14.10;;
24713;SDS011;12820;51.580;5.010;2023-02-12T08:29:26;27.10;;;13.90;;
24713;SDS011;12820;51.580;5.010;2023-02-12T08:34:32;23.13;;;13.23;;
24713;SDS011;12820;51.580;5.010;2023-02-12T08:39:35;23.63;;;13.50;;
24713;SDS011;12820;51.580;5.010;2023-02-12T08:44:38;24.67;;;13.05;;
24713;SDS011;12820;51.580;5.010;2023-02-12T08:49:41;26.60;;;14.05;;
24713;SDS011;12820;51.580;5.010;2023-02-12T08:54:43;22.25;;;13.48;;
24713;SDS011;12820;51.580;5.010;2023-02-12T08:59:47;22.90;;;13.20;;
24713;SDS011;12820;51.580;5.010;2023-02-12T09:04:49;24.30;;;12.93;;
24713;SDS011;12820;51.580;5.010;2023-02-12T09:09:51;22.15;;;12.68;;
24713;SDS011;12820;51.580;5.010;2023-02-12T09:14:53;22.95;;;13.10;;
24713;SDS011;12820;51.580;5.010;2023-02-12T09:19:56;22.13;;;12.43;;
24713;SDS011;12820;51.580;5.010;2023-02-12T09:24:58;22.50;;;12.40;;
24713;SDS011;12820;51.580;5.010;2023-02-12T09:30:00;23.58;;;13.23;;
24713;SDS011;12820;51.580;5.010;2023-02-12T09:35:02;23.10;;;12.50;;
24713;SDS011;12820;51.580;5.010;2023-02-12T09:40:05;21.42;;;12.20;;
24713;SDS011;12820;51.580;5.010;2023-02-12T09:45:21;21.67;;;12.50;;
24713;SDS011;12820;51.580;5.010;2023-02-12T09:50:41;19.95;;;11.82;;
24713;SDS011;12820;51.580;5.010;2023-02-12T09:55:51;20.40;;;11.82;;
24713;SDS011;12820;51.580;5.010;2023-02-12T10:00:53;18.40;;;11.25;;
24713;SDS011;12820;51.580;5.010;2023-02-12T10:05:57;22.63;;;11.35;;
24713;SDS011;12820;51.580;5.010;2023-02-12T10:27:19;17.80;;;11.25;;
24713;SDS011;12820;51.580;5.010;2023-02-12T10:32:35;22.23;;;12.73;;
24713;SDS011;12820;51.580;5.010;2023-02-12T10:37:50;19.15;;;11.90;;
24713;SDS011;12820;51.580;5.010;2023-02-12T10:42:59;22.17;;;12.38;;
24713;SDS011;12820;51.580;5.010;2023-02-12T10:58:22;24.08;;;13.55;;
24713;SDS011;12820;51.580;5.010;2023-02-12T11:03:29;26.15;;;14.27;;
24713;SDS011;12820;51.580;5.010;2023-02-12T11:08:38;25.38;;;14.80;;
24713;SDS011;12820;51.580;5.010;2023-02-12T11:19:05;29.40;;;15.02;;
24713;SDS011;12820;51.580;5.010;2023-02-12T11:24:26;30.65;;;16.25;;
24713;SDS011;12820;51.580;5.010;2023-02-12T11:29:36;29.50;;;15.55;;
24713;SDS011;12820;51.580;5.010;2023-02-12T11:34:38;29.90;;;17.08;;
24713;SDS011;12820;51.580;5.010;2023-02-12T11:39:40;29.33;;;16.73;;
24713;SDS011;12820;51.580;5.010;2023-02-12T11:44:51;29.88;;;16.77;;
24713;SDS011;12820;51.580;5.010;2023-02-12T11:50:06;36.13;;;17.48;;
24713;SDS011;12820;51.580;5.010;2023-02-12T11:55:30;34.53;;;17.02;;
24713;SDS011;12820;51.580;5.010;2023-02-12T12:00:36;35.28;;;17.48;;
24713;SDS011;12820;51.580;5.010;2023-02-12T12:05:47;30.13;;;16.35;;
24713;SDS011;12820;51.580;5.010;2023-02-12T12:10:56;32.40;;;17.50;;
24713;SDS011;12820;51.580;5.010;2023-02-12T12:16:03;29.00;;;17.13;;
24713;SDS011;12820;51.580;5.010;2023-02-12T12:21:37;32.33;;;17.10;;
24713;SDS011;12820;51.580;5.010;2023-02-12T12:26:43;30.77;;;17.10;;
24713;SDS011;12820;51.580;5.010;2023-02-12T12:31:52;29.58;;;17.23;;
24713;SDS011;12820;51.580;5.010;2023-02-12T13:14:41;32.53;;;17.45;;
24713;SDS011;12820;51.580;5.010;2023-02-12T13:25:27;36.85;;;18.80;;
24713;SDS011;12820;51.580;5.010;2023-02-12T13:30:39;35.17;;;18.27;;
24713;SDS011;12820;51.580;5.010;2023-02-12T13:35:46;32.95;;;18.02;;
24713;SDS011;12820;51.580;5.010;2023-02-12T13:40:51;30.63;;;17.10;;
24713;SDS011;12820;51.580;5.010;2023-02-12T13:56:28;31.00;;;16.83;;
24713;SDS011;12820;51.580;5.010;2023-02-12T14:01:39;33.22;;;18.30;;
24713;SDS011;12820;51.580;5.010;2023-02-12T14:06:52;32.45;;;17.58;;
24713;SDS011;12820;51.580;5.010;2023-02-12T14:12:00;32.30;;;17.67;;
24713;SDS011;12820;51.580;5.010;2023-02-12T14:27:41;36.80;;;19.88;;
24713;SDS011;12820;51.580;5.010;2023-02-12T14:37:57;36.15;;;18.98;;
24713;SDS011;12820;51.580;5.010;2023-02-12T14:43:01;34.38;;;18.25;;
24713;SDS011;12820;51.580;5.010;2023-02-12T14:53:46;31.83;;;17.80;;
24713;SDS011;12820;51.580;5.010;2023-02-12T14:58:50;33.88;;;17.67;;
24713;SDS011;12820;51.580;5.010;2023-02-12T15:03:55;34.95;;;17.90;;
24713;SDS011;12820;51.580;5.010;2023-02-12T15:09:06;33.35;;;18.85;;
24713;SDS011;12820;51.580;5.010;2023-02-12T15:30:29;34.80;;;18.73;;
24713;SDS011;12820;51.580;5.010;2023-02-12T15:35:37;34.58;;;17.80;;
24713;SDS011;12820;51.580;5.010;2023-02-12T15:40:54;32.00;;;17.55;;
24713;SDS011;12820;51.580;5.010;2023-02-12T15:45:57;33.85;;;17.05;;
24713;SDS011;12820;51.580;5.010;2023-02-12T15:56:24;35.65;;;18.08;;
24713;SDS011;12820;51.580;5.010;2023-02-12T16:01:32;34.72;;;18.48;;
24713;SDS011;12820;51.580;5.010;2023-02-12T16:06:36;37.92;;;18.77;;
24713;SDS011;12820;51.580;5.010;2023-02-12T16:11:38;32.15;;;16.48;;
24713;SDS011;12820;51.580;5.010;2023-02-12T16:16:45;34.40;;;17.52;;
24713;SDS011;12820;51.580;5.010;2023-02-12T16:21:58;39.67;;;20.38;;
24713;SDS011;12820;51.580;5.010;2023-02-12T16:27:20;39.50;;;19.95;;
24713;SDS011;12820;51.580;5.010;2023-02-12T16:47:48;38.05;;;20.15;;
24713;SDS011;12820;51.580;5.010;2023-02-12T16:52:58;38.75;;;20.10;;
24713;SDS011;12820;51.580;5.010;2023-02-12T16:58:02;39.17;;;19.25;;
24713;SDS011;12820;51.580;5.010;2023-02-12T17:03:04;37.90;;;20.25;;
24713;SDS011;12820;51.580;5.010;2023-02-12T17:08:13;38.50;;;19.25;;
24713;SDS011;12820;51.580;5.010;2023-02-12T17:13:17;38.33;;;21.17;;
24713;SDS011;12820;51.580;5.010;2023-02-12T17:18:21;37.30;;;21.27;;
24713;SDS011;12820;51.580;5.010;2023-02-12T17:23:24;40.35;;;20.60;;
24713;SDS011;12820;51.580;5.010;2023-02-12T17:28:27;39.17;;;19.02;;
24713;SDS011;12820;51.580;5.010;2023-02-12T17:33:30;38.72;;;20.08;;
24713;SDS011;12820;51.580;5.010;2023-02-12T17:38:33;34.75;;;18.80;;
24713;SDS011;12820;51.580;5.010;2023-02-12T17:43:35;39.53;;;20.45;;
24713;SDS011;12820;51.580;5.010;2023-02-12T17:48:38;40.88;;;20.42;;
24713;SDS011;12820;51.580;5.010;2023-02-12T17:53:41;40.15;;;20.08;;
24713;SDS011;12820;51.580;5.010;2023-02-12T17:58:44;41.55;;;21.50;;
24713;SDS011;12820;51.580;5.010;2023-02-12T18:03:47;44.38;;;21.95;;
24713;SDS011;12820;51.580;5.010;2023-02-12T18:08:49;43.42;;;21.58;;
24713;SDS011;12820;51.580;5.010;2023-02-12T18:13:52;50.15;;;23.95;;
24713;SDS011;12820;51.580;5.010;2023-02-12T18:18:56;44.65;;;22.67;;
24713;SDS011;12820;51.580;5.010;2023-02-12T18:24:00;40.05;;;20.65;;
24713;SDS011;12820;51.580;5.010;2023-02-12T18:29:03;39.83;;;21.55;;
24713;SDS011;12820;51.580;5.010;2023-02-12T18:34:06;49.85;;;24.25;;
24713;SDS011;12820;51.580;5.010;2023-02-12T18:39:08;42.33;;;20.73;;
24713;SDS011;12820;51.580;5.010;2023-02-12T18:44:12;42.20;;;20.08;;
24713;SDS011;12820;51.580;5.010;2023-02-12T18:49:14;46.40;;;23.40;;
24713;SDS011;12820;51.580;5.010;2023-02-12T18:54:17;47.47;;;24.13;;
24713;SDS011;12820;51.580;5.010;2023-02-12T18:59:19;44.28;;;22.27;;
24713;SDS011;12820;51.580;5.010;2023-02-12T19:04:22;39.30;;;20.73;;
24713;SDS011;12820;51.580;5.010;2023-02-12T19:09:26;41.85;;;21.30;;
24713;SDS011;12820;51.580;5.010;2023-02-12T19:14:28;43.83;;;22.45;;
24713;SDS011;12820;51.580;5.010;2023-02-12T19:19:30;44.83;;;20.95;;
24713;SDS011;12820;51.580;5.010;2023-02-12T19:24:32;37.67;;;20.30;;
24713;SDS011;12820;51.580;5.010;2023-02-12T19:29:47;43.42;;;21.67;;
24713;SDS011;12820;51.580;5.010;2023-02-12T19:34:49;41.00;;;20.23;;
24713;SDS011;12820;51.580;5.010;2023-02-12T19:39:52;45.08;;;21.02;;
24713;SDS011;12820;51.580;5.010;2023-02-12T19:44:54;45.17;;;20.67;;
24713;SDS011;12820;51.580;5.010;2023-02-12T19:49:56;38.90;;;20.35;;
24713;SDS011;12820;51.580;5.010;2023-02-12T19:54:58;45.42;;;22.10;;
24713;SDS011;12820;51.580;5.010;2023-02-12T20:00:00;42.72;;;21.75;;
24713;SDS011;12820;51.580;5.010;2023-02-12T20:05:06;42.10;;;21.77;;
24713;SDS011;12820;51.580;5.010;2023-02-12T20:10:09;44.72;;;21.92;;
24713;SDS011;12820;51.580;5.010;2023-02-12T20:15:12;44.63;;;22.42;;
24713;SDS011;12820;51.580;5.010;2023-02-12T20:20:14;46.97;;;22.23;;
24713;SDS011;12820;51.580;5.010;2023-02-12T20:25:16;41.70;;;20.52;;
24713;SDS011;12820;51.580;5.010;2023-02-12T20:30:18;48.17;;;22.85;;
24713;SDS011;12820;51.580;5.010;2023-02-12T20:35:21;45.17;;;21.50;;
24713;SDS011;12820;51.580;5.010;2023-02-12T20:40:23;44.08;;;21.83;;
24713;SDS011;12820;51.580;5.010;2023-02-12T20:45:25;47.35;;;22.55;;
24713;SDS011;12820;51.580;5.010;2023-02-12T20:50:27;52.00;;;24.52;;
24713;SDS011;12820;51.580;5.010;2023-02-12T20:55:31;47.15;;;23.02;;
24713;SDS011;12820;51.580;5.010;2023-02-12T21:00:33;53.38;;;23.48;;
24713;SDS011;12820;51.580;5.010;2023-02-12T21:05:35;48.63;;;24.33;;
24713;SDS011;12820;51.580;5.010;2023-02-12T21:10:38;49.38;;;24.17;;
24713;SDS011;12820;51.580;5.010;2023-02-12T21:15:40;47.67;;;22.90;;
24713;SDS011;12820;51.580;5.010;2023-02-12T21:20:42;49.40;;;23.33;;
24713;SDS011;12820;51.580;5.010;2023-02-12T21:25:44;50.40;;;24.15;;
24713;SDS011;12820;51.580;5.010;2023-02-12T21:30:46;53.50;;;24.23;;
24713;SDS011;12820;51.580;5.010;2023-02-12T21:35:48;51.13;;;24.75;;
24713;SDS011;12820;51.580;5.010;2023-02-12T21:40:50;54.10;;;23.58;;
24713;SDS011;12820;51.580;5.010;2023-02-12T21:45:52;54.53;;;24.58;;
24713;SDS011;12820;51.580;5.010;2023-02-12T21:50:54;56.78;;;26.02;;
24713;SDS011;12820;51.580;5.010;2023-02-12T21:56:01;57.00;;;25.92;;
24713;SDS011;12820;51.580;5.010;2023-02-12T22:01:11;59.42;;;26.13;;
24713;SDS011;12820;51.580;5.010;2023-02-12T22:06:16;59.80;;;25.60;;
24713;SDS011;12820;51.580;5.010;2023-02-12T22:11:20;58.58;;;25.83;;
24713;SDS011;12820;51.580;5.010;2023-02-12T22:16:23;63.55;;;26.40;;
24713;SDS011;12820;51.580;5.010;2023-02-12T22:21:28;57.05;;;26.15;;
24713;SDS011;12820;51.580;5.010;2023-02-12T22:26:32;54.22;;;25.48;;
24713;SDS011;12820;51.580;5.010;2023-02-12T22:31:35;56.25;;;24.83;;
24713;SDS011;12820;51.580;5.010;2023-02-12T22:36:38;51.58;;;24.52;;
24713;SDS011;12820;51.580;5.010;2023-02-12T22:41:42;57.42;;;25.95;;
24713;SDS011;12820;51.580;5.010;2023-02-12T22:46:44;58.63;;;25.00;;
24713;SDS011;12820;51.580;5.010;2023-02-12T22:51:46;54.25;;;24.33;;
24713;SDS011;12820;51.580;5.010;2023-02-12T22:56:48;57.35;;;26.25;;
24713;SDS011;12820;51.580;5.010;2023-02-12T23:01:52;59.17;;;25.23;;
24713;SDS011;12820;51.580;5.010;2023-02-12T23:06:54;61.63;;;26.38;;
24713;SDS011;12820;51.580;5.010;2023-02-12T23:11:56;58.80;;;25.45;;
24713;SDS011;12820;51.580;5.010;2023-02-12T23:16:58;57.85;;;25.10;;
24713;SDS011;12820;51.580;5.010;2023-02-12T23:22:00;56.63;;;24.30;;
24713;SDS011;12820;51.580;5.010;2023-02-12T23:27:02;57.55;;;25.45;;
24713;SDS011;12820;51.580;5.010;2023-02-12T23:32:05;56.58;;;24.27;;
24713;SDS011;12820;51.580;5.010;2023-02-12T23:37:07;60.00;;;26.10;;
24713;SDS011;12820;51.580;5.010;2023-02-12T23:42:09;54.58;;;25.67;;
24713;SDS011;12820;51.580;5.010;2023-02-12T23:47:11;55.20;;;24.45;;
24713;SDS011;12820;51.580;5.010;2023-02-12T23:52:13;58.78;;;25.15;;
24713;SDS011;12820;51.580;5.010;2023-02-12T23:57:15;58.97;;;25.75;;
